createdAt,value
2023-03-29T00:01:35.210Z,100764.27
2023-03-29T00:04:05.568Z,100762.45
2023-03-29T00:06:33.921Z,100764.90
2023-03-29T00:09:04.801Z,100767.69
2023-03-29T00:11:33.360Z,100770.98
2023-03-29T00:14:01.385Z,100770.21
2023-03-29T00:16:29.686Z,100771.67
2023-03-29T00:18:59.299Z,100774.10
2023-03-29T00:21:27.271Z,100771.84
2023-03-29T00:23:55.709Z,100770.27
2023-03-29T00:26:23.780Z,100774.86
2023-03-29T00:28:51.658Z,100771.11
2023-03-29T00:31:19.759Z,100773.42
2023-03-29T00:33:48.118Z,100771.65
2023-03-29T00:36:16.101Z,100772.23
2023-03-29T00:38:44.000Z,100773.71
2023-03-29T00:41:12.412Z,100774.79
2023-03-29T00:43:55.311Z,100773.17
2023-03-29T00:46:24.333Z,100768.41
2023-03-29T00:48:55.366Z,100769.98
2023-03-29T00:51:26.235Z,100769.21
2023-03-29T00:53:57.894Z,100769.93
2023-03-29T00:56:30.996Z,100768.16
2023-03-29T00:59:03.089Z,100766.88
2023-03-29T01:01:37.459Z,100767.96
2023-03-29T01:04:18.774Z,100767.55
2023-03-29T01:06:53.148Z,100765.28
2023-03-29T01:09:24.128Z,100768.08
2023-03-29T01:11:55.634Z,100765.66
2023-03-29T01:14:33.122Z,100763.41
2023-03-29T01:17:01.410Z,100765.19
2023-03-29T01:19:38.357Z,100764.96
2023-03-29T01:22:17.700Z,100763.99
2023-03-29T01:25:00.506Z,100767.46
2023-03-29T01:27:49.532Z,100766.67
2023-03-29T01:30:23.016Z,100764.88
2023-03-29T01:32:58.540Z,100764.77
2023-03-29T01:35:35.794Z,100762.17
2023-03-29T01:38:09.473Z,100761.91
2023-03-29T01:40:37.617Z,100768.23
2023-03-29T01:43:16.956Z,100768.48
2023-03-29T01:45:50.273Z,100770.35
2023-03-29T01:48:24.556Z,100771.27
2023-03-29T01:50:55.448Z,100770.38
2023-03-29T01:53:30.261Z,100771.16
2023-03-29T01:56:04.498Z,100771.05
2023-03-29T01:58:38.062Z,100770.73
2023-03-29T02:01:10.082Z,100773.34
2023-03-29T02:03:42.265Z,100768.46
2023-03-29T02:06:14.173Z,100767.58
2023-03-29T02:08:44.179Z,100771.10
2023-03-29T02:11:15.144Z,100771.50
2023-03-29T02:13:43.150Z,100774.78
2023-03-29T02:16:13.914Z,100779.10
2023-03-29T02:18:45.906Z,100780.05
2023-03-29T02:21:23.896Z,100781.14
2023-03-29T02:23:54.343Z,100785.77
2023-03-29T02:26:23.400Z,100785.19
2023-03-29T02:28:52.182Z,100790.23
2023-03-29T02:31:29.036Z,100792.85
2023-03-29T02:34:01.998Z,100790.88
2023-03-29T02:36:35.419Z,100791.27
2023-03-29T02:39:07.514Z,100792.63
2023-03-29T02:41:37.753Z,100790.70
2023-03-29T02:44:08.275Z,100787.77
2023-03-29T02:46:37.520Z,100789.27
2023-03-29T02:49:06.097Z,100787.90
2023-03-29T02:51:36.037Z,100791.36
2023-03-29T02:54:11.341Z,100789.16
2023-03-29T02:56:44.187Z,100791.30
2023-03-29T02:59:12.425Z,100793.86
2023-03-29T03:01:42.461Z,100795.02
2023-03-29T03:04:11.545Z,100795.27
2023-03-29T03:06:39.711Z,100792.05
2023-03-29T03:09:09.705Z,100794.71
2023-03-29T03:11:39.826Z,100795.65
2023-03-29T03:14:09.127Z,100795.71
2023-03-29T03:16:37.379Z,100796.97
2023-03-29T03:19:05.728Z,100801.31
2023-03-29T03:21:34.594Z,100801.48
2023-03-29T03:24:02.567Z,100804.33
2023-03-29T03:26:30.707Z,100806.21
2023-03-29T03:29:00.208Z,100805.17
2023-03-29T03:31:46.914Z,100803.70
2023-03-29T03:34:34.040Z,100802.81
2023-03-29T03:37:02.891Z,100798.23
2023-03-29T03:39:32.948Z,100802.36
2023-03-29T03:42:01.494Z,100801.65
2023-03-29T03:44:29.911Z,100798.95
2023-03-29T03:47:16.753Z,100800.45
2023-03-29T03:49:45.148Z,100803.96
2023-03-29T03:52:14.007Z,100803.81
2023-03-29T03:54:42.471Z,100803.32
2023-03-29T03:57:32.549Z,100804.29
2023-03-29T04:00:00.798Z,100805.16
2023-03-29T04:02:41.247Z,100806.52
2023-03-29T04:05:09.584Z,100810.10
2023-03-29T04:07:53.622Z,100812.29
2023-03-29T04:10:52.712Z,100814.49
2023-03-29T04:13:25.819Z,100818.57
2023-03-29T04:16:12.280Z,100819.47
2023-03-29T04:18:40.552Z,100822.75
2023-03-29T04:21:09.118Z,100822.10
2023-03-29T04:23:37.281Z,100825.85
2023-03-29T04:26:07.191Z,100826.25
2023-03-29T04:28:45.661Z,100827.33
2023-03-29T04:31:34.598Z,100832.77
2023-03-29T04:34:16.277Z,100831.38
2023-03-29T04:36:46.114Z,100829.19
2023-03-29T04:39:19.621Z,100829.05
2023-03-29T04:41:51.547Z,100827.61
2023-03-29T04:44:27.501Z,100830.39
2023-03-29T04:46:59.303Z,100829.32
2023-03-29T04:49:35.918Z,100829.80
2023-03-29T04:52:08.445Z,100828.45
2023-03-29T04:54:38.368Z,100833.98
2023-03-29T04:57:16.805Z,100831.39
2023-03-29T05:00:14.312Z,100828.48
2023-03-29T05:03:00.380Z,100825.63
2023-03-29T05:05:29.684Z,100823.11
2023-03-29T05:08:02.655Z,100822.14
2023-03-29T05:10:45.720Z,100821.00
2023-03-29T05:13:16.178Z,100817.27
2023-03-29T05:15:44.128Z,100813.20
2023-03-29T05:18:12.088Z,100812.67
2023-03-29T05:20:41.742Z,100809.66
2023-03-29T05:23:10.269Z,100807.89
2023-03-29T05:25:58.612Z,100802.05
2023-03-29T05:28:26.828Z,100801.07
2023-03-29T05:31:01.723Z,100798.48
2023-03-29T05:33:30.227Z,100800.41
2023-03-29T05:36:03.156Z,100793.55
2023-03-29T05:38:32.347Z,100792.72
2023-03-29T05:41:00.723Z,100799.66
2023-03-29T05:43:35.029Z,100795.92
2023-03-29T05:46:03.790Z,100794.58
2023-03-29T05:48:31.935Z,100801.13
2023-03-29T05:51:00.418Z,100800.49
2023-03-29T05:53:29.521Z,100794.67
2023-03-29T05:55:57.662Z,100792.00
2023-03-29T05:58:28.421Z,100796.11
2023-03-29T06:00:57.120Z,100793.23
2023-03-29T06:03:58.265Z,100793.16
2023-03-29T06:06:31.400Z,100794.23
2023-03-29T06:09:02.229Z,100799.16
2023-03-29T06:11:35.387Z,100797.22
2023-03-29T06:14:38.434Z,100796.93
2023-03-29T06:17:15.988Z,100793.70
2023-03-29T06:19:44.076Z,100794.45
2023-03-29T06:22:14.712Z,100798.52
2023-03-29T06:24:43.862Z,100802.75
2023-03-29T06:27:18.982Z,100802.86
2023-03-29T06:29:47.537Z,100798.27
2023-03-29T06:32:16.431Z,100799.89
2023-03-29T06:34:50.274Z,100804.19
2023-03-29T06:37:40.499Z,100807.33
2023-03-29T06:40:29.262Z,100807.19
2023-03-29T06:42:57.669Z,100810.52
2023-03-29T06:45:44.692Z,100815.05
2023-03-29T06:48:28.178Z,100815.47
2023-03-29T06:50:56.554Z,100816.50
2023-03-29T06:53:27.505Z,100815.66
2023-03-29T06:56:04.552Z,100816.52
2023-03-29T06:58:49.062Z,100818.33
2023-03-29T07:01:39.727Z,100814.60
2023-03-29T07:04:15.609Z,100816.19
2023-03-29T07:07:07.271Z,100817.23
2023-03-29T07:09:39.241Z,100820.64
2023-03-29T07:12:30.368Z,100818.73
2023-03-29T07:15:00.808Z,100820.56
2023-03-29T07:17:49.180Z,100820.69
2023-03-29T07:20:17.952Z,100820.35
2023-03-29T07:22:50.605Z,100820.00
2023-03-29T07:25:19.716Z,100816.55
2023-03-29T07:27:48.270Z,100819.21
2023-03-29T07:30:20.634Z,100818.30
2023-03-29T07:32:51.667Z,100817.14
2023-03-29T07:35:30.634Z,100815.38
2023-03-29T07:37:59.232Z,100813.58
2023-03-29T07:40:27.571Z,100814.08
2023-03-29T07:42:58.925Z,100810.48
2023-03-29T07:45:29.157Z,100809.28
2023-03-29T07:48:10.201Z,100812.19
2023-03-29T07:50:49.785Z,100808.48
2023-03-29T07:53:20.549Z,100812.11
2023-03-29T07:55:49.330Z,100812.36
2023-03-29T07:58:35.709Z,100813.98
2023-03-29T08:01:07.879Z,100811.99
2023-03-29T08:03:59.240Z,100811.45
2023-03-29T08:06:48.293Z,100804.12
2023-03-29T08:09:17.012Z,100804.42
2023-03-29T08:11:45.200Z,100802.47
2023-03-29T08:14:25.252Z,100792.23
2023-03-29T08:16:59.060Z,100795.55
2023-03-29T08:19:27.286Z,100797.38
2023-03-29T08:22:04.035Z,100792.89
2023-03-29T08:24:46.662Z,100790.38
2023-03-29T08:27:15.130Z,100789.21
2023-03-29T08:29:43.097Z,100785.71
2023-03-29T08:32:11.447Z,100782.11
2023-03-29T08:34:39.431Z,100780.10
2023-03-29T08:37:18.546Z,100779.17
2023-03-29T08:39:48.197Z,100781.09
2023-03-29T08:43:03.638Z,100783.21
2023-03-29T08:45:44.974Z,100781.06
2023-03-29T08:48:23.175Z,100778.20
2023-03-29T08:50:55.725Z,100774.21
2023-03-29T08:53:30.622Z,100773.57
2023-03-29T08:56:17.939Z,100770.69
2023-03-29T08:59:17.474Z,100775.67
2023-03-29T09:01:48.782Z,100774.44
2023-03-29T09:04:22.277Z,100775.17
2023-03-29T09:06:54.397Z,100772.70
2023-03-29T09:09:31.759Z,100772.15
2023-03-29T09:12:12.154Z,100774.38
2023-03-29T09:14:57.791Z,100773.77
2023-03-29T09:17:38.825Z,100774.08
2023-03-29T09:20:22.395Z,100768.48
2023-03-29T09:23:04.066Z,100770.81
2023-03-29T09:25:59.500Z,100766.91
2023-03-29T09:28:50.625Z,100767.17
2023-03-29T09:31:22.764Z,100760.06
2023-03-29T09:33:57.779Z,100760.14
2023-03-29T09:36:46.099Z,100762.27
2023-03-29T09:39:15.811Z,100750.35
2023-03-29T09:41:50.792Z,100752.71
2023-03-29T09:44:30.881Z,100751.19
2023-03-29T09:47:08.688Z,100743.52
2023-03-29T09:49:43.960Z,100747.90
2023-03-29T09:52:15.865Z,100749.38
2023-03-29T09:54:46.324Z,100744.95
2023-03-29T09:57:33.089Z,100742.05
2023-03-29T10:00:05.107Z,100740.27
2023-03-29T10:02:41.659Z,100741.89
2023-03-29T10:05:17.436Z,100739.80
2023-03-29T10:07:50.569Z,100738.48
2023-03-29T10:10:25.852Z,100740.06
2023-03-29T10:12:57.224Z,100736.53
2023-03-29T10:15:30.130Z,100737.15
2023-03-29T10:18:00.526Z,100736.33
2023-03-29T10:20:28.717Z,100740.64
2023-03-29T10:22:57.973Z,100736.95
2023-03-29T10:25:29.413Z,100746.53
2023-03-29T10:28:04.680Z,100743.36
2023-03-29T10:30:37.967Z,100741.72
2023-03-29T10:33:15.768Z,100737.17
2023-03-29T10:35:46.540Z,100741.57
2023-03-29T10:38:18.954Z,100740.40
2023-03-29T10:40:49.198Z,100739.00
2023-03-29T10:43:24.648Z,100736.95
2023-03-29T10:45:54.731Z,100738.14
2023-03-29T10:48:28.368Z,100738.61
2023-03-29T10:51:00.397Z,100734.38
2023-03-29T10:53:31.123Z,100735.45
2023-03-29T10:56:11.401Z,100729.52
2023-03-29T10:58:55.396Z,100730.66
2023-03-29T11:01:34.263Z,100726.16
2023-03-29T11:04:20.232Z,100725.57
2023-03-29T11:06:59.239Z,100723.70
2023-03-29T11:09:42.269Z,100720.16
2023-03-29T11:12:20.229Z,100719.65
2023-03-29T11:15:00.181Z,100711.24
2023-03-29T11:17:50.244Z,100709.39
2023-03-29T11:20:27.068Z,100711.79
2023-03-29T11:23:07.761Z,100706.12
2023-03-29T11:25:47.767Z,100703.45
2023-03-29T11:28:29.283Z,100695.86
2023-03-29T11:31:05.171Z,100702.53
2023-03-29T11:33:50.384Z,100698.75
2023-03-29T11:36:25.090Z,100693.54
2023-03-29T11:39:03.609Z,100690.70
2023-03-29T11:41:34.854Z,100693.83
2023-03-29T11:44:05.900Z,100688.76
2023-03-29T11:46:39.018Z,100684.69
2023-03-29T11:49:14.402Z,100684.73
2023-03-29T11:51:46.286Z,100678.09
2023-03-29T11:54:21.381Z,100679.86
2023-03-29T11:56:55.685Z,100686.41
2023-03-29T11:59:30.769Z,100677.55
2023-03-29T12:02:08.864Z,100680.18
2023-03-29T12:04:42.204Z,100679.75
2023-03-29T12:07:17.934Z,100672.48
2023-03-29T12:09:52.118Z,100669.30
2023-03-29T12:12:24.836Z,100671.41
2023-03-29T12:15:02.827Z,100672.61
2023-03-29T12:17:39.068Z,100675.19
2023-03-29T12:20:14.959Z,100668.70
2023-03-29T12:22:46.231Z,100659.98
2023-03-29T12:25:20.205Z,100659.16
2023-03-29T12:28:01.153Z,100656.43
2023-03-29T12:30:39.203Z,100657.63
2023-03-29T12:33:21.674Z,100658.48
2023-03-29T12:36:10.515Z,100657.47
2023-03-29T12:39:04.728Z,100658.03
2023-03-29T12:41:53.031Z,100651.23
2023-03-29T12:45:01.003Z,100655.88
2023-03-29T12:47:41.797Z,100657.08
2023-03-29T12:50:23.179Z,100658.96
2023-03-29T12:52:51.259Z,100657.09
2023-03-29T12:55:29.424Z,100653.00
2023-03-29T12:58:07.699Z,100643.42
2023-03-29T13:00:45.052Z,100641.70
2023-03-29T13:03:28.760Z,100640.02
2023-03-29T13:06:02.176Z,100642.24
2023-03-29T13:08:35.861Z,100641.92
2023-03-29T13:11:05.747Z,100640.23
2023-03-29T13:13:39.920Z,100638.70
2023-03-29T13:16:16.818Z,100643.50
2023-03-29T13:18:56.901Z,100639.92
2023-03-29T13:21:32.756Z,100636.52
2023-03-29T13:24:13.525Z,100632.93
2023-03-29T13:26:50.110Z,100631.74
2023-03-29T13:29:42.103Z,100625.44
2023-03-29T13:32:27.859Z,100626.30
2023-03-29T13:35:03.673Z,100621.52
2023-03-29T13:37:40.812Z,100616.41
2023-03-29T13:40:31.571Z,100618.30
2023-03-29T13:43:08.410Z,100616.08
2023-03-29T13:45:38.224Z,100614.38
2023-03-29T13:48:24.713Z,100611.80
2023-03-29T13:50:55.775Z,100611.30
2023-03-29T13:53:28.741Z,100603.96
2023-03-29T13:55:59.036Z,100602.59
2023-03-29T13:58:37.744Z,100599.02
2023-03-29T14:01:13.218Z,100600.04
2023-03-29T14:03:45.072Z,100600.90
2023-03-29T14:06:17.461Z,100601.07
2023-03-29T14:08:48.824Z,100598.17
2023-03-29T14:11:22.947Z,100595.44
2023-03-29T14:13:54.280Z,100593.39
2023-03-29T14:16:26.802Z,100595.44
2023-03-29T14:18:58.896Z,100590.65
2023-03-29T14:21:27.499Z,100586.90
2023-03-29T14:23:59.432Z,100586.56
2023-03-29T14:26:31.940Z,100587.73
2023-03-29T14:29:02.162Z,100587.23
2023-03-29T14:31:34.796Z,100585.19
2023-03-29T14:34:06.237Z,100584.69
2023-03-29T14:36:38.241Z,100583.50
2023-03-29T14:39:12.379Z,100582.80
2023-03-29T14:41:46.898Z,100581.27
2023-03-29T14:44:15.265Z,100580.75
2023-03-29T14:46:46.282Z,100578.02
2023-03-29T14:49:17.471Z,100575.80
2023-03-29T14:51:47.160Z,100575.81
2023-03-29T14:54:21.807Z,100574.79
2023-03-29T14:56:50.861Z,100567.11
2023-03-29T14:59:26.504Z,100567.80
2023-03-29T15:01:54.939Z,100566.61
2023-03-29T15:04:23.011Z,100567.46
2023-03-29T15:06:52.985Z,100570.53
2023-03-29T15:09:31.979Z,100570.70
2023-03-29T15:12:01.569Z,100570.35
2023-03-29T15:14:33.389Z,100566.08
2023-03-29T15:17:04.722Z,100561.48
2023-03-29T15:19:33.776Z,100556.02
2023-03-29T15:22:10.253Z,100559.77
2023-03-29T15:24:43.843Z,100553.96
2023-03-29T15:27:15.074Z,100560.45
2023-03-29T15:29:46.270Z,100557.89
2023-03-29T15:32:22.464Z,100554.49
2023-03-29T15:35:00.726Z,100553.98
2023-03-29T15:37:29.060Z,100549.88
2023-03-29T15:39:57.532Z,100545.61
2023-03-29T15:42:26.195Z,100544.59
2023-03-29T15:44:56.120Z,100545.95
2023-03-29T15:47:24.519Z,100540.98
2023-03-29T15:49:52.540Z,100543.02
2023-03-29T15:52:20.464Z,100541.31
2023-03-29T15:54:48.485Z,100537.72
2023-03-29T15:57:17.686Z,100537.89
2023-03-29T15:59:45.913Z,100539.27
2023-03-29T16:02:15.881Z,100534.15
2023-03-29T16:04:44.371Z,100532.45
2023-03-29T16:07:16.440Z,100532.29
2023-03-29T16:09:45.230Z,100533.84
2023-03-29T16:12:15.567Z,100527.88
2023-03-29T16:14:43.576Z,100529.08
2023-03-29T16:17:12.023Z,100520.05
2023-03-29T16:19:40.125Z,100518.17
2023-03-29T16:22:08.279Z,100521.77
2023-03-29T16:24:36.314Z,100518.36
2023-03-29T16:27:04.900Z,100516.14
2023-03-29T16:29:34.595Z,100516.14
2023-03-29T16:32:05.490Z,100514.45
2023-03-29T16:34:35.252Z,100514.61
2023-03-29T16:37:05.421Z,100511.71
2023-03-29T16:39:33.801Z,100508.65
2023-03-29T16:42:03.719Z,100504.55
2023-03-29T16:44:32.002Z,100503.52
2023-03-29T16:47:00.982Z,100504.02
2023-03-29T16:49:29.221Z,100500.11
2023-03-29T16:51:59.323Z,100497.71
2023-03-29T16:54:29.103Z,100495.66
2023-03-29T16:56:57.395Z,100493.27
2023-03-29T16:59:25.621Z,100497.36
2023-03-29T17:01:53.673Z,100495.79
2023-03-29T17:04:21.665Z,100492.73
2023-03-29T17:06:51.134Z,100488.96
2023-03-29T17:09:19.151Z,100492.88
2023-03-29T17:11:48.231Z,100491.67
2023-03-29T17:14:16.419Z,100490.46
2023-03-29T17:16:46.124Z,100496.42
2023-03-29T17:19:14.212Z,100492.33
2023-03-29T17:21:42.490Z,100495.71
2023-03-29T17:24:10.533Z,100488.89
2023-03-29T17:26:38.500Z,100492.98
2023-03-29T17:29:08.681Z,100492.63
2023-03-29T17:31:37.493Z,100492.27
2023-03-29T17:34:05.495Z,100496.52
2023-03-29T17:36:33.384Z,100498.36
2023-03-29T17:39:02.932Z,100499.89
2023-03-29T17:41:31.326Z,100503.10
2023-03-29T17:44:00.476Z,100502.77
2023-03-29T17:46:28.804Z,100504.60
2023-03-29T17:48:58.471Z,100506.96
2023-03-29T17:51:29.183Z,100505.41
2023-03-29T17:53:57.663Z,100507.77
2023-03-29T17:56:26.075Z,100509.30
2023-03-29T17:58:57.050Z,100515.92
2023-03-29T18:01:26.293Z,100517.25
2023-03-29T18:03:54.774Z,100516.91
2023-03-29T18:06:22.708Z,100517.06
2023-03-29T18:08:52.609Z,100516.02
2023-03-29T18:11:23.250Z,100510.92
2023-03-29T18:13:52.878Z,100510.90
2023-03-29T18:16:21.931Z,100508.69
2023-03-29T18:18:51.979Z,100508.83
2023-03-29T18:21:21.327Z,100509.50
2023-03-29T18:23:57.105Z,100504.22
2023-03-29T18:26:25.728Z,100500.63
2023-03-29T18:28:54.395Z,100499.94
2023-03-29T18:31:22.560Z,100494.67
2023-03-29T18:33:50.717Z,100496.86
2023-03-29T18:36:18.828Z,100504.01
2023-03-29T18:38:46.926Z,100502.81
2023-03-29T18:41:15.241Z,100505.00
2023-03-29T18:43:43.522Z,100501.10
2023-03-29T18:46:11.851Z,100499.55
2023-03-29T18:48:40.607Z,100497.52
2023-03-29T18:51:10.284Z,100497.86
2023-03-29T18:53:41.031Z,100500.92
2023-03-29T18:56:08.984Z,100503.64
2023-03-29T18:58:37.140Z,100505.17
2023-03-29T19:01:06.608Z,100505.52
2023-03-29T19:03:35.169Z,100503.30
2023-03-29T19:06:03.977Z,100502.61
2023-03-29T19:08:33.646Z,100502.95
2023-03-29T19:11:03.030Z,100502.09
2023-03-29T19:13:31.042Z,100498.84
2023-03-29T19:15:59.088Z,100500.54
2023-03-29T19:18:27.115Z,100499.69
2023-03-29T19:20:55.574Z,100500.52
2023-03-29T19:23:28.865Z,100501.36
2023-03-29T19:26:00.945Z,100505.43
2023-03-29T19:28:29.821Z,100507.98
2023-03-29T19:30:59.736Z,100507.95
2023-03-29T19:33:28.543Z,100504.54
2023-03-29T19:35:56.873Z,100503.69
2023-03-29T19:38:25.291Z,100500.45
2023-03-29T19:40:53.288Z,100496.86
2023-03-29T19:43:21.480Z,100495.65
2023-03-29T19:45:50.829Z,100497.16
2023-03-29T19:48:23.504Z,100494.06
2023-03-29T19:50:52.141Z,100492.33
2023-03-29T19:53:20.651Z,100488.59
2023-03-29T19:55:49.042Z,100489.23
2023-03-29T19:58:17.183Z,100487.52
2023-03-29T20:00:46.028Z,100483.44
2023-03-29T20:03:15.168Z,100479.85
2023-03-29T20:05:43.408Z,100470.32
2023-03-29T20:08:11.487Z,100466.73
2023-03-29T20:10:39.475Z,100463.68
2023-03-29T20:13:08.905Z,100462.48
2023-03-29T20:15:36.952Z,100461.27
2023-03-29T20:18:06.460Z,100456.33
2023-03-29T20:20:35.117Z,100453.77
2023-03-29T20:23:05.172Z,100453.09
2023-03-29T20:25:35.504Z,100452.24
2023-03-29T20:28:04.187Z,100452.24
2023-03-29T20:30:32.331Z,100445.60
2023-03-29T20:33:00.533Z,100442.37
2023-03-29T20:35:28.565Z,100437.94
2023-03-29T20:37:56.621Z,100435.70
2023-03-29T20:40:24.766Z,100432.95
2023-03-29T20:42:53.624Z,100431.41
2023-03-29T20:45:21.884Z,100433.91
2023-03-29T20:47:55.445Z,100431.84
2023-03-29T20:50:29.654Z,100434.19
2023-03-29T20:53:03.096Z,100434.30
2023-03-29T20:55:32.604Z,100434.59
2023-03-29T20:58:01.485Z,100430.27
2023-03-29T21:00:32.233Z,100432.60
2023-03-29T21:03:01.145Z,100426.77
2023-03-29T21:05:31.230Z,100426.04
2023-03-29T21:08:00.109Z,100421.21
2023-03-29T21:10:29.066Z,100421.34
2023-03-29T21:12:59.482Z,100423.45
2023-03-29T21:15:29.608Z,100426.10
2023-03-29T21:17:58.202Z,100421.98
2023-03-29T21:20:27.329Z,100418.20
2023-03-29T21:22:55.345Z,100419.18
2023-03-29T21:25:23.403Z,100415.91
2023-03-29T21:27:51.351Z,100413.66
2023-03-29T21:30:19.416Z,100414.49
2023-03-29T21:32:47.401Z,100416.83
2023-03-29T21:35:15.484Z,100418.31
2023-03-29T21:37:43.652Z,100414.38
2023-03-29T21:40:13.758Z,100411.61
2023-03-29T21:42:41.753Z,100413.07
2023-03-29T21:45:11.539Z,100411.83
2023-03-29T21:47:39.673Z,100407.89
2023-03-29T21:50:10.096Z,100409.38
2023-03-29T21:52:38.372Z,100410.55
2023-03-29T21:55:07.462Z,100404.77
2023-03-29T21:57:35.831Z,100406.10
2023-03-29T22:00:10.223Z,100405.61
2023-03-29T22:02:38.910Z,100397.79
2023-03-29T22:05:08.313Z,100396.27
2023-03-29T22:07:38.041Z,100393.02
2023-03-29T22:10:08.750Z,100394.03
2023-03-29T22:12:37.967Z,100390.82
2023-03-29T22:15:08.207Z,100382.52
2023-03-29T22:17:36.289Z,100378.77
2023-03-29T22:20:12.181Z,100372.00
2023-03-29T22:22:43.711Z,100368.44
2023-03-29T22:25:12.506Z,100364.72
2023-03-29T22:27:41.981Z,100363.20
2023-03-29T22:30:12.099Z,100360.85
2023-03-29T22:32:40.506Z,100363.42
2023-03-29T22:35:10.304Z,100362.59
2023-03-29T22:37:41.687Z,100358.05
2023-03-29T22:40:12.691Z,100356.04
2023-03-29T22:42:41.096Z,100354.02
2023-03-29T22:45:14.547Z,100350.11
2023-03-29T22:47:42.776Z,100346.91
2023-03-29T22:50:11.926Z,100346.89
2023-03-29T22:52:39.952Z,100347.91
2023-03-29T22:55:09.230Z,100345.89
2023-03-29T22:57:37.384Z,100344.19
2023-03-29T23:00:08.274Z,100343.02
2023-03-29T23:02:36.755Z,100349.11
2023-03-29T23:05:06.265Z,100345.04
2023-03-29T23:07:35.824Z,100341.11
2023-03-29T23:10:06.308Z,100339.59
2023-03-29T23:12:35.507Z,100335.34
2023-03-29T23:15:05.764Z,100330.92
2023-03-29T23:17:34.570Z,100332.95
2023-03-29T23:20:05.735Z,100334.65
2023-03-29T23:22:35.677Z,100331.04
2023-03-29T23:25:04.070Z,100329.84
2023-03-29T23:27:32.486Z,100327.45
2023-03-29T23:30:01.154Z,100321.68
2023-03-29T23:32:29.362Z,100323.36
2023-03-29T23:34:57.958Z,100323.02
2023-03-29T23:37:26.096Z,100327.94
2023-03-29T23:39:54.279Z,100322.00
2023-03-29T23:42:22.415Z,100320.80
2023-03-29T23:44:50.437Z,100322.54
2023-03-29T23:47:18.911Z,100323.56
2023-03-29T23:49:47.241Z,100323.23
2023-03-29T23:52:15.315Z,100320.54
2023-03-29T23:54:43.361Z,100318.36
2023-03-29T23:57:11.969Z,100311.43
2023-03-29T23:59:42.012Z,100303.98
